Time;durP1;ratioP1;P1;durP2;ratioP2;P2;SDS_P1;SDS_P2;PMS_P1;PMS_P2;Temp;Humidity;BMP_temperature;BMP_pressure;BME280_temperature;BME280_humidity;BME280_pressure;Samples;Min_cycle;Max_cycle;Signal;HPM_P1;HPM_P2
2021/09/20 00:02:28;;;;;;;8.67;7.50;;;;;;;9.49;86.38;98874.95;2295826;77;20966;-81
2021/09/20 00:05:28;;;;;;;8.13;7.17;;;;;;;9.48;86.41;98874.92;2376219;74;20924;-81
2021/09/20 00:08:28;;;;;;;9.30;7.60;;;;;;;9.44;86.39;98870.08;2373649;74;21320;-81
2021/09/20 00:11:29;;;;;;;13.60;8.33;;;;;;;9.45;86.56;98880.95;2375358;74;20941;-82
2021/09/20 00:14:29;;;;;;;10.53;7.33;;;;;;;9.42;86.57;98875.70;2378246;75;20928;-80
2021/09/20 00:17:30;;;;;;;8.70;6.93;;;;;;;9.41;86.63;98875.24;2297528;77;20967;-82
2021/09/20 00:20:30;;;;;;;9.73;7.60;;;;;;;9.41;86.67;98875.24;2375951;75;20956;-82
2021/09/20 00:23:31;;;;;;;9.37;7.90;;;;;;;9.42;86.88;98873.09;2374578;75;20932;-82
2021/09/20 00:26:31;;;;;;;10.43;7.50;;;;;;;9.44;86.87;98883.53;2297966;76;20998;-82
2021/09/20 00:29:32;;;;;;;11.77;7.40;;;;;;;9.41;86.93;98879.15;2305296;77;20938;-81
2021/09/20 00:32:32;;;;;;;9.20;8.30;;;;;;;9.43;87.05;98881.36;2314312;77;20924;-81
2021/09/20 00:35:33;;;;;;;12.00;7.23;;;;;;;9.45;86.97;98880.08;2293304;76;20985;-82
2021/09/20 00:38:33;;;;;;;10.40;8.07;;;;;;;9.48;87.16;98884.04;2294851;76;20925;-82
2021/09/20 00:41:34;;;;;;;12.23;8.87;;;;;;;9.47;87.07;98881.86;2297466;76;21365;-80
2021/09/20 00:44:35;;;;;;;9.43;7.90;;;;;;;9.46;87.15;98885.74;2293814;76;20948;-80
2021/09/20 00:47:35;;;;;;;11.30;8.43;;;;;;;9.43;87.18;98881.36;2290638;77;20929;-80
2021/09/20 00:50:36;;;;;;;8.67;7.77;;;;;;;9.44;87.41;98875.72;2293270;76;20947;-80
2021/09/20 00:53:36;;;;;;;14.40;8.83;;;;;;;9.44;87.49;98872.69;2303418;76;21006;-81
2021/09/20 00:56:37;;;;;;;13.03;8.83;;;;;;;9.43;87.42;98873.54;2287307;77;20944;-81
2021/09/20 00:59:37;;;;;;;14.83;8.90;;;;;;;9.39;87.45;98883.46;2305917;76;20952;-82
2021/09/20 01:02:38;;;;;;;11.00;8.77;;;;;;;9.37;87.59;98878.64;2293662;77;20971;-81
2021/09/20 01:05:38;;;;;;;10.50;8.63;;;;;;;9.37;87.74;98876.05;2298353;76;20973;-80
2021/09/20 01:08:39;;;;;;;14.00;8.57;;;;;;;9.35;87.78;98878.17;2292342;76;20971;-80
2021/09/20 01:11:39;;;;;;;12.37;9.10;;;;;;;9.36;87.88;98873.41;2293653;76;21371;-81
2021/09/20 01:14:40;;;;;;;13.23;9.23;;;;;;;9.33;87.82;98872.94;2294843;76;20948;-81
2021/09/20 01:17:43;;;;;;;11.50;8.90;;;;;;;9.33;88.03;98868.15;2355800;75;20924;-80
2021/09/20 01:20:44;;;;;;;19.27;9.30;;;;;;;9.34;88.02;98862.97;2373587;75;20931;-82
2021/09/20 01:23:44;;;;;;;12.27;9.37;;;;;;;9.37;88.07;98866.05;2372048;75;20935;-81
2021/09/20 01:26:45;;;;;;;12.63;9.50;;;;;;;9.36;87.96;98862.56;2291803;76;21049;-81
2021/09/20 01:29:45;;;;;;;13.40;9.03;;;;;;;9.35;87.87;98863.41;2316208;77;20960;-80
2021/09/20 01:32:46;;;;;;;11.37;8.43;;;;;;;9.34;87.93;98860.36;2299231;75;20955;-80
2021/09/20 01:35:47;;;;;;;15.63;9.47;;;;;;;9.34;87.98;98853.84;2301243;77;20987;-82
2021/09/20 01:38:47;;;;;;;12.40;9.40;;;;;;;9.35;87.87;98859.94;2368512;74;20964;-80
2021/09/20 01:41:48;;;;;;;14.40;9.47;;;;;;;9.32;87.75;98859.45;2363572;75;21009;-81
2021/09/20 01:44:48;;;;;;;12.93;9.77;;;;;;;9.32;88.00;98855.55;2280988;76;21359;-81
2021/09/20 01:47:49;;;;;;;13.47;10.20;;;;;;;9.30;87.79;98853.34;2379038;74;20924;-81
2021/09/20 01:50:49;;;;;;;12.33;10.30;;;;;;;9.28;87.59;98851.14;2289840;77;20997;-81
2021/09/20 01:53:50;;;;;;;15.67;10.13;;;;;;;9.25;87.60;98853.69;2319196;75;20955;-81
2021/09/20 01:56:51;;;;;;;16.20;12.20;;;;;;;9.22;87.58;98844.52;2379074;74;20975;-82
2021/09/20 01:59:51;;;;;;;17.80;10.13;;;;;;;9.18;87.58;98838.39;2316485;75;20926;-82
2021/09/20 02:02:52;;;;;;;14.97;10.60;;;;;;;9.18;87.53;98840.11;2323957;75;21007;-80
2021/09/20 02:05:52;;;;;;;13.13;10.47;;;;;;;9.19;87.70;98841.87;2322543;75;21037;-81
2021/09/20 02:08:53;;;;;;;17.70;11.90;;;;;;;9.19;87.40;98839.27;2321584;75;20950;-81
2021/09/20 02:11:53;;;;;;;14.43;10.80;;;;;;;9.19;87.46;98851.86;2370483;75;20913;-81
2021/09/20 02:14:54;;;;;;;15.03;10.53;;;;;;;9.20;87.44;98839.71;2332850;74;21299;-82
2021/09/20 02:17:55;;;;;;;12.33;10.57;;;;;;;9.17;87.08;98846.17;2316519;76;21312;-80
2021/09/20 02:20:55;;;;;;;12.97;10.73;;;;;;;9.18;87.13;98846.62;2292908;76;20971;-80
2021/09/20 02:23:56;;;;;;;11.67;9.50;;;;;;;9.17;86.85;98850.08;2377230;74;20953;-80
2021/09/20 02:26:56;;;;;;;13.30;9.23;;;;;;;9.15;86.36;98847.88;2362919;75;20966;-81
2021/09/20 02:29:57;;;;;;;12.47;9.10;;;;;;;9.13;86.12;98855.66;2365316;75;20948;-82
2021/09/20 02:32:57;;;;;;;14.30;10.80;;;;;;;9.13;86.33;98854.36;2376762;75;20923;-81
2021/09/20 02:35:58;;;;;;;15.17;10.00;;;;;;;9.11;85.77;98861.69;2359918;75;20991;-81
2021/09/20 02:38:58;;;;;;;11.03;9.17;;;;;;;9.08;85.95;98850.80;2374939;75;21418;-81
2021/09/20 02:41:59;;;;;;;11.17;9.33;;;;;;;9.07;85.94;98856.85;2368569;75;21283;-79
2021/09/20 02:44:59;;;;;;;12.10;8.93;;;;;;;9.08;85.94;98856.43;2380456;75;20920;-80
2021/09/20 02:48:00;;;;;;;10.43;9.03;;;;;;;10.14;91.07;98846.84;2294838;76;20932;-81
2021/09/20 02:51:01;;;;;;;12.63;8.13;;;;;;;10.27;83.37;98845.30;2378690;75;20920;-81
2021/09/20 02:54:01;;;;;;;11.00;8.60;;;;;;;9.86;82.66;98850.79;2366478;75;20964;-78
2021/09/20 02:57:02;;;;;;;11.27;8.27;;;;;;;9.57;82.99;98852.52;2291880;77;20949;-79
2021/09/20 03:00:02;;;;;;;9.03;7.87;;;;;;;9.39;83.22;98852.20;2368762;75;20949;-82
2021/09/20 03:03:05;;;;;;;9.10;8.20;;;;;;;9.24;83.34;98854.55;2378877;75;20956;-83
2021/09/20 03:06:05;;;;;;;15.20;7.97;;;;;;;9.13;83.60;98854.36;2376096;75;21359;-82
2021/09/20 03:09:06;;;;;;;10.40;7.87;;;;;;;9.07;83.77;98861.19;2378251;75;20940;-82
2021/09/20 03:12:06;;;;;;;10.30;8.67;;;;;;;9.02;84.29;98860.22;2286832;76;20916;-80
2021/09/20 03:15:07;;;;;;;9.57;8.03;;;;;;;8.99;84.34;98857.14;2293361;77;21336;-80
2021/09/20 03:18:08;;;;;;;16.30;8.30;;;;;;;8.94;84.68;98865.29;2292096;77;20980;-81
2021/09/20 03:21:08;;;;;;;11.47;8.37;;;;;;;8.91;85.20;98860.03;2303321;77;20956;-80
2021/09/20 03:24:12;;;;;;;9.50;7.60;;;;;;;8.86;85.14;98861.67;2302200;76;20972;-81
2021/09/20 03:27:11;;;;;;;10.57;8.00;;;;;;;8.81;85.45;98864.19;2366054;75;20924;-81
2021/09/20 03:30:11;;;;;;;11.93;8.10;;;;;;;8.77;86.23;98902.71;2367658;75;20973;-79
2021/09/20 03:33:12;;;;;;;9.17;7.47;;;;;;;8.58;85.94;98887.55;2368662;75;20928;-78
2021/09/20 03:36:12;;;;;;;11.53;8.17;;;;;;;8.42;86.12;98893.28;2281034;77;20972;-80
2021/09/20 03:39:13;;;;;;;12.70;8.23;;;;;;;8.26;86.22;98885.54;2318684;76;21325;-80
2021/09/20 03:42:13;;;;;;;7.97;7.07;;;;;;;8.12;86.17;98887.84;2320875;75;20917;-80
2021/09/20 03:45:14;;;;;;;8.90;7.67;;;;;;;8.04;86.39;98890.69;2320354;76;21035;-81
2021/09/20 03:48:15;;;;;;;9.73;7.97;;;;;;;7.96;86.44;98894.41;2315589;76;20964;-80
2021/09/20 03:51:15;;;;;;;13.77;8.23;;;;;;;7.91;86.71;98900.35;2320140;75;20915;-80
2021/09/20 03:54:16;;;;;;;11.07;8.30;;;;;;;7.88;87.00;98901.16;2319246;76;21314;-80
2021/09/20 03:57:16;;;;;;;12.87;8.10;;;;;;;7.84;86.67;98903.65;2318629;75;20912;-80
2021/09/20 04:00:17;;;;;;;11.87;8.07;;;;;;;7.79;86.85;98905.23;2315179;76;21327;-80
2021/09/20 04:03:17;;;;;;;13.70;8.10;;;;;;;7.79;86.88;98903.51;2315277;76;21006;-81
2021/09/20 04:06:18;;;;;;;10.13;7.63;;;;;;;7.80;86.64;98905.69;2316220;76;20991;-81
2021/09/20 04:09:19;;;;;;;12.30;7.67;;;;;;;7.77;86.36;98910.81;2315519;76;20952;-79
2021/09/20 04:12:20;;;;;;;10.13;7.10;;;;;;;7.78;86.31;98908.67;2312980;76;21092;-79
2021/09/20 04:15:20;;;;;;;11.33;8.00;;;;;;;7.76;86.32;98909.93;2316167;75;20955;-82
2021/09/20 04:18:21;;;;;;;13.90;7.70;;;;;;;7.77;86.61;98916.01;2315663;76;20983;-81
2021/09/20 04:21:21;;;;;;;10.90;7.30;;;;;;;7.76;86.50;98913.83;2315821;76;20983;-81
2021/09/20 04:24:22;;;;;;;8.97;6.97;;;;;;;7.77;86.43;98918.19;2315299;76;21880;-80
2021/09/20 04:27:22;;;;;;;8.27;7.17;;;;;;;7.77;86.41;98919.91;2314015;76;21134;-81
2021/09/20 04:30:26;;;;;;;8.07;6.83;;;;;;;7.71;86.54;98924.95;2314274;76;20968;-82
2021/09/20 04:33:26;;;;;;;8.63;6.67;;;;;;;7.75;86.73;98920.29;2316496;76;20999;-81
2021/09/20 04:36:27;;;;;;;11.37;7.07;;;;;;;7.76;86.63;98919.03;2315745;76;21023;-81
2021/09/20 04:39:27;;;;;;;8.60;6.60;;;;;;;7.75;86.36;98925.48;2314411;76;20955;-80
2021/09/20 04:42:28;;;;;;;8.93;7.63;;;;;;;7.72;86.26;98917.62;2315282;76;20975;-81
2021/09/20 04:45:28;;;;;;;10.53;6.43;;;;;;;7.69;86.53;98923.62;2314959;76;20993;-82
2021/09/20 04:48:29;;;;;;;11.87;6.17;;;;;;;7.70;86.57;98930.99;2316617;76;20960;-81
2021/09/20 04:51:29;;;;;;;8.90;6.37;;;;;;;7.67;86.35;98926.18;2315800;76;20975;-79
2021/09/20 04:54:30;;;;;;;8.37;6.27;;;;;;;7.71;86.64;98925.83;2315608;76;20959;-78
2021/09/20 04:57:30;;;;;;;7.63;6.07;;;;;;;7.78;87.14;98931.64;2313353;75;20963;-79
2021/09/20 05:00:31;;;;;;;8.57;6.43;;;;;;;8.10;86.34;98936.33;2313991;76;21651;-77
2021/09/20 05:03:31;;;;;;;8.20;6.27;;;;;;;8.05;85.61;98939.66;2314237;75;21371;-78
2021/09/20 05:06:32;;;;;;;11.10;5.77;;;;;;;8.00;85.49;98943.45;2309627;76;20996;-79
2021/09/20 05:09:32;;;;;;;9.83;5.60;;;;;;;8.40;90.00;98941.37;2315907;76;20963;-81
2021/09/20 05:12:33;;;;;;;10.40;5.33;;;;;;;9.73;91.56;98936.17;2315208;75;20955;-81
2021/09/20 05:15:33;;;;;;;6.90;5.47;;;;;;;11.39;87.33;98935.88;2315153;75;20995;-84
2021/09/20 05:18:34;;;;;;;12.03;5.43;;;;;;;11.58;77.95;98943.46;2315375;76;21295;-80
2021/09/20 05:21:35;;;;;;;5.90;5.30;;;;;;;11.83;82.83;98936.74;2316751;76;20956;-83
2021/09/20 05:24:35;;;;;;;11.90;7.77;;;;;;;12.71;78.86;98939.97;2315742;76;20943;-82
2021/09/20 05:27:36;;;;;;;6.50;5.00;;;;;;;12.26;75.49;98941.89;2315424;76;20931;-79
2021/09/20 05:30:37;;;;;;;7.40;5.40;;;;;;;11.75;73.61;98941.87;2315138;76;21435;-79
2021/09/20 05:33:37;;;;;;;11.93;5.20;;;;;;;10.85;73.85;98945.70;2315482;77;21005;-78
2021/09/20 05:36:38;;;;;;;6.23;5.63;;;;;;;10.23;75.53;98946.55;2315699;75;20964;-79
2021/09/20 05:39:38;;;;;;;6.83;5.20;;;;;;;9.77;76.23;98955.80;2315700;76;20932;-79
2021/09/20 05:42:39;;;;;;;7.60;5.40;;;;;;;9.36;76.57;98961.56;2315331;76;20940;-79
2021/09/20 05:45:39;;;;;;;8.13;6.00;;;;;;;8.92;77.85;98956.80;2314426;76;21038;-79
2021/09/20 05:48:40;;;;;;;6.40;5.80;;;;;;;8.63;78.93;98958.77;2314347;75;20959;-78
2021/09/20 05:51:40;;;;;;;6.67;5.97;;;;;;;8.38;79.95;98957.36;2312771;76;20960;-78
2021/09/20 05:54:41;;;;;;;7.10;6.40;;;;;;;8.22;80.61;98963.91;2313358;76;20959;-78
2021/09/20 05:57:41;;;;;;;12.93;6.40;;;;;;;8.13;82.00;98962.81;2313258;76;21007;-79
2021/09/20 06:00:43;;;;;;;6.77;6.03;;;;;;;8.04;82.09;98964.78;2314855;75;20998;-78
2021/09/20 06:03:44;;;;;;;7.43;6.67;;;;;;;8.01;82.26;98972.50;2314231;76;21031;-78
2021/09/20 06:06:44;;;;;;;8.17;6.33;;;;;;;7.99;82.69;98967.27;2314775;76;20994;-78
2021/09/20 06:09:45;;;;;;;6.80;6.07;;;;;;;7.99;82.82;98971.59;2314584;76;21002;-79
2021/09/20 06:12:45;;;;;;;9.63;6.70;;;;;;;8.03;82.96;98977.74;2312880;76;20960;-79
2021/09/20 06:15:46;;;;;;;8.37;5.93;;;;;;;8.06;83.33;98977.81;2314105;76;20928;-79
2021/09/20 06:18:47;;;;;;;8.03;7.17;;;;;;;8.11;83.69;98978.80;2313325;76;20936;-78
2021/09/20 06:21:47;;;;;;;14.10;6.53;;;;;;;8.13;83.92;98971.49;2313504;75;20955;-78
2021/09/20 06:24:47;;;;;;;8.77;6.30;;;;;;;8.07;83.71;98973.95;2312753;76;20956;-79
2021/09/20 06:27:48;;;;;;;9.13;6.70;;;;;;;7.96;83.09;98972.39;2314901;76;20990;-79
2021/09/20 06:30:48;;;;;;;9.67;6.50;;;;;;;7.84;83.00;98976.41;2313513;76;20927;-78
2021/09/20 06:33:49;;;;;;;9.00;6.90;;;;;;;7.83;83.43;98979.86;2314687;76;21351;-79
2021/09/20 06:36:49;;;;;;;10.90;7.10;;;;;;;7.84;83.54;98976.41;2312053;76;21027;-79
2021/09/20 06:39:50;;;;;;;8.40;7.20;;;;;;;7.79;83.30;98981.89;2310793;76;20995;-78
2021/09/20 06:42:51;;;;;;;11.13;7.57;;;;;;;7.72;83.64;98986.47;2287999;76;20970;-79
2021/09/20 06:45:51;;;;;;;12.20;8.23;;;;;;;7.66;83.24;98988.08;2299945;77;20956;-79
2021/09/20 06:48:52;;;;;;;9.60;7.27;;;;;;;7.62;83.50;98989.26;2275213;77;20977;-80
2021/09/20 06:51:52;;;;;;;12.87;7.97;;;;;;;7.60;83.98;98993.11;2297040;77;20996;-79
2021/09/20 06:54:53;;;;;;;12.37;7.30;;;;;;;7.61;83.82;98989.67;2288572;76;20943;-80
2021/09/20 06:57:53;;;;;;;9.10;7.90;;;;;;;7.60;83.90;98999.61;2371989;75;20980;-80
2021/09/20 07:00:54;;;;;;;10.30;7.27;;;;;;;7.59;83.77;98994.37;2285466;76;21609;-79
2021/09/20 07:03:54;;;;;;;8.07;6.40;;;;;;;7.59;83.62;98995.67;2368770;75;20960;-80
2021/09/20 07:06:55;;;;;;;12.10;7.10;;;;;;;7.53;83.29;98998.98;2281428;77;20990;-79
2021/09/20 07:09:55;;;;;;;11.07;6.87;;;;;;;7.52;83.72;99010.64;2309322;77;21054;-79
2021/09/20 07:12:56;;;;;;;11.13;6.53;;;;;;;7.56;83.72;98999.07;2311197;76;20986;-79
2021/09/20 07:15:56;;;;;;;8.10;6.77;;;;;;;7.61;83.22;99001.37;2310400;77;20964;-79
2021/09/20 07:18:57;;;;;;;9.07;6.70;;;;;;;7.70;83.37;99005.04;2308430;76;20960;-80
2021/09/20 07:21:58;;;;;;;12.50;6.60;;;;;;;7.78;83.32;99009.59;2311429;76;20960;-79
2021/09/20 07:24:58;;;;;;;8.53;5.60;;;;;;;7.82;83.22;99012.77;2311271;76;20986;-78
2021/09/20 07:27:58;;;;;;;8.53;5.77;;;;;;;7.73;82.13;99015.52;2312706;76;20956;-78
2021/09/20 07:30:59;;;;;;;6.33;5.20;;;;;;;7.65;82.09;99023.98;2310389;76;21383;-79
2021/09/20 07:33:59;;;;;;;9.50;5.67;;;;;;;7.62;82.48;99029.11;2308865;76;20968;-79
2021/09/20 07:37:00;;;;;;;5.70;5.20;;;;;;;7.59;81.40;99027.73;2315625;76;20999;-79
2021/09/20 07:40:01;;;;;;;7.37;5.27;;;;;;;7.56;81.00;99027.64;2313317;77;20960;-78
2021/09/20 07:43:01;;;;;;;12.10;6.43;;;;;;;7.57;81.29;99037.20;2309008;76;20928;-81
2021/09/20 07:46:02;;;;;;;11.77;5.80;;;;;;;7.60;80.86;99037.70;2307520;77;20921;-80
2021/09/20 07:49:02;;;;;;;11.20;6.00;;;;;;;7.63;80.07;99036.06;2307646;76;20955;-80
2021/09/20 07:52:03;;;;;;;7.23;5.20;;;;;;;7.70;80.93;99036.22;2313002;76;21387;-80
2021/09/20 07:55:05;;;;;;;5.27;4.47;;;;;;;7.77;80.59;99037.72;2307015;77;21696;-81
2021/09/20 07:58:05;;;;;;;5.03;4.53;;;;;;;7.82;79.61;99037.45;2315182;76;20960;-80
2021/09/20 08:01:06;;;;;;;5.47;4.97;;;;;;;7.94;79.73;99035.58;2308192;76;21333;-80
2021/09/20 08:04:06;;;;;;;4.63;4.23;;;;;;;8.10;80.03;99036.42;2318020;76;20944;-80
2021/09/20 08:07:07;;;;;;;4.43;3.67;;;;;;;8.29;77.83;99032.13;2315219;76;20964;-81
2021/09/20 08:10:07;;;;;;;9.87;3.57;;;;;;;8.39;77.70;99040.17;2310020;76;20956;-80
2021/09/20 08:13:08;;;;;;;4.77;3.37;;;;;;;8.48;77.48;99044.30;2312316;76;20920;-78
2021/09/20 08:16:09;;;;;;;4.20;3.30;;;;;;;8.57;76.87;99044.08;2310117;77;20956;-78
2021/09/20 08:19:09;;;;;;;10.47;2.90;;;;;;;8.66;75.65;99046.44;2310646;76;20983;-79
2021/09/20 08:22:10;;;;;;;3.60;2.97;;;;;;;8.78;75.28;99052.83;2307253;76;20972;-79
2021/09/20 08:25:10;;;;;;;6.13;2.17;;;;;;;8.89;74.98;99048.73;2272432;77;21312;-80
2021/09/20 08:28:11;;;;;;;2.57;2.37;;;;;;;9.00;72.85;99051.98;2312756;77;20955;-80
2021/09/20 08:31:11;;;;;;;2.63;2.43;;;;;;;9.05;72.59;99052.96;2314707;75;20971;-77
2021/09/20 08:34:12;;;;;;;4.10;2.63;;;;;;;9.10;73.37;99051.33;2302933;76;20990;-79
2021/09/20 08:37:12;;;;;;;2.80;2.57;;;;;;;9.21;73.58;99048.10;2313380;75;20994;-79
2021/09/20 08:40:13;;;;;;;2.60;2.00;;;;;;;9.24;71.38;99045.98;2281374;77;20960;-80
2021/09/20 08:43:14;;;;;;;2.37;2.17;;;;;;;9.24;71.17;99047.28;2377891;74;20957;-80
2021/09/20 08:46:14;;;;;;;2.67;2.17;;;;;;;9.24;71.80;99053.38;2376160;74;20995;-80
2021/09/20 08:49:15;;;;;;;2.43;2.27;;;;;;;9.30;71.52;99051.31;2283478;77;20993;-79
2021/09/20 08:52:16;;;;;;;2.40;2.20;;;;;;;9.34;71.64;99052.25;2310000;77;20966;-80
2021/09/20 08:55:16;;;;;;;3.73;2.50;;;;;;;9.41;71.35;99051.11;2317191;77;20955;-79
2021/09/20 08:58:17;;;;;;;2.73;2.40;;;;;;;9.48;70.29;99055.59;2311631;76;20967;-79
2021/09/20 09:01:17;;;;;;;3.00;2.37;;;;;;;9.51;70.48;99057.38;2274774;77;20939;-80
2021/09/20 09:04:18;;;;;;;2.43;2.10;;;;;;;9.72;69.46;99058.23;2309348;76;20980;-79
2021/09/20 09:07:18;;;;;;;3.93;2.00;;;;;;;10.03;68.80;99056.63;2275340;77;20978;-79
2021/09/20 09:13:21;;;;;;;3.00;2.70;;;;;;;10.39;68.25;99043.77;2153009;82;20975;-79
2021/09/20 09:16:22;;;;;;;2.90;2.70;;;;;;;10.56;67.71;99054.08;2153179;82;21031;-78
2021/09/20 09:19:22;;;;;;;5.53;2.57;;;;;;;10.56;66.08;99054.08;2149798;82;20975;-79
2021/09/20 09:22:23;;;;;;;3.43;2.67;;;;;;;10.53;66.74;99055.34;2201253;80;20978;-79
2021/09/20 09:25:23;;;;;;;4.33;3.93;;;;;;;10.44;67.81;99056.50;2200918;80;21003;-79
2021/09/20 09:28:24;;;;;;;4.63;3.73;;;;;;;10.31;67.05;99055.39;2200710;80;20970;-79
2021/09/20 09:31:24;;;;;;;5.70;3.03;;;;;;;10.15;67.15;99057.27;2200368;80;20934;-79
2021/09/20 09:34:25;;;;;;;6.20;4.23;;;;;;;10.03;67.03;99054.45;2200813;80;20958;-79
2021/09/20 09:37:25;;;;;;;8.30;4.53;;;;;;;9.92;67.85;99057.30;2197981;80;20986;-78
2021/09/20 09:40:26;;;;;;;7.70;5.23;;;;;;;9.92;68.17;99065.11;2197531;80;20943;-80
2021/09/20 09:43:27;;;;;;;4.57;3.20;;;;;;;10.15;68.11;99059.88;2197682;80;20975;-77
2021/09/20 09:46:27;;;;;;;4.10;2.77;;;;;;;10.41;67.19;99053.41;2199609;80;21008;-78
2021/09/20 09:49:28;;;;;;;5.27;2.80;;;;;;;10.72;65.72;99044.73;2200343;80;21660;-78
2021/09/20 09:52:29;;;;;;;2.90;2.70;;;;;;;10.87;64.29;99041.03;2197024;80;21386;-80
2021/09/20 09:55:29;;;;;;;2.93;2.50;;;;;;;10.90;64.62;99047.60;2196926;80;20994;-80
2021/09/20 09:58:30;;;;;;;2.00;1.90;;;;;;;11.03;64.12;99047.34;2200267;80;21013;-80
2021/09/20 10:01:30;;;;;;;2.80;2.60;;;;;;;11.05;64.58;99053.03;2198104;80;21630;-81
2021/09/20 10:04:31;;;;;;;3.30;2.50;;;;;;;10.93;64.85;99046.77;2201862;80;21336;-80
2021/09/20 10:07:32;;;;;;;4.10;2.67;;;;;;;10.71;64.32;99053.00;2199089;80;20975;-78
2021/09/20 10:10:33;;;;;;;4.10;2.80;;;;;;;10.46;64.91;99054.79;2310340;75;21296;-78
2021/09/20 10:13:33;;;;;;;4.03;2.73;;;;;;;10.19;65.41;99059.95;2354235;75;20899;-80
2021/09/20 10:16:33;;;;;;;3.07;2.70;;;;;;;10.02;66.31;99056.17;2356685;75;20915;-82
2021/09/20 10:19:35;;;;;;;2.60;2.37;;;;;;;9.94;66.70;99061.69;2361779;75;20931;-81
2021/09/20 10:22:35;;;;;;;3.00;2.80;;;;;;;9.99;67.22;99073.50;2371689;75;21049;-80
2021/09/20 10:25:37;;;;;;;4.67;3.17;;;;;;;10.05;67.20;99069.70;2358383;75;21011;-78
2021/09/20 10:28:37;;;;;;;4.27;3.63;;;;;;;10.19;68.16;99070.38;2371328;75;20929;-80
2021/09/20 10:31:38;;;;;;;4.10;3.60;;;;;;;10.20;67.65;99072.59;2292899;77;20939;-80
2021/09/20 10:34:38;;;;;;;7.60;5.30;;;;;;;10.05;67.35;99071.00;2312867;75;20936;-80
2021/09/20 10:37:39;;;;;;;7.60;4.83;;;;;;;9.90;68.12;99077.70;2314771;76;21037;-79
2021/09/20 10:40:39;;;;;;;6.30;5.23;;;;;;;9.89;69.33;99070.73;2312983;76;20992;-80
2021/09/20 10:43:40;;;;;;;4.13;3.73;;;;;;;10.03;68.82;99073.58;2311849;76;21450;-80
2021/09/20 10:46:40;;;;;;;4.37;3.97;;;;;;;10.19;67.85;99079.94;2350259;75;21337;-80
2021/09/20 10:49:41;;;;;;;6.87;4.97;;;;;;;10.31;67.93;99076.69;2367631;75;20978;-80
2021/09/20 10:52:41;;;;;;;5.97;5.30;;;;;;;10.43;68.28;99076.92;2371085;75;20974;-80
2021/09/20 10:55:42;;;;;;;6.87;5.10;;;;;;;10.59;67.53;99077.61;2363998;75;20927;-80
2021/09/20 10:58:43;;;;;;;7.30;5.07;;;;;;;10.60;67.69;99079.80;2292032;76;20952;-79
2021/09/20 11:01:43;;;;;;;7.40;5.30;;;;;;;10.57;67.59;99072.80;2377013;74;20941;-80
2021/09/20 11:04:44;;;;;;;6.93;5.23;;;;;;;10.56;67.83;99083.21;2370973;75;21043;-79
2021/09/20 11:07:44;;;;;;;6.27;5.67;;;;;;;10.70;68.52;99073.86;2361327;75;20975;-80
2021/09/20 11:10:45;;;;;;;5.72;5.22;;;;;;;10.88;68.87;99071.94;2276837;77;20958;-79
2021/09/20 11:13:45;;;;;;;5.57;4.90;;;;;;;11.08;67.14;99070.48;2311205;76;20928;-80
2021/09/20 11:16:46;;;;;;;5.03;4.57;;;;;;;11.14;67.85;99074.48;2310578;76;20957;-79
2021/09/20 11:19:47;;;;;;;5.10;4.60;;;;;;;11.46;67.53;99067.95;2281448;76;20947;-79
2021/09/20 11:22:47;;;;;;;8.30;4.33;;;;;;;11.24;66.50;99068.95;2311950;77;20936;-79
2021/09/20 11:25:48;;;;;;;4.77;4.37;;;;;;;11.01;67.37;99071.25;2312852;77;20944;-79
2021/09/20 11:28:48;;;;;;;4.47;4.00;;;;;;;10.89;67.21;99065.86;2321996;75;21362;-79
2021/09/20 11:31:49;;;;;;;5.83;4.23;;;;;;;10.90;67.22;99075.45;2318348;75;20988;-80
2021/09/20 11:34:51;;;;;;;5.47;4.97;;;;;;;10.95;66.76;99072.48;2314575;75;20999;-80
2021/09/20 11:37:52;;;;;;;4.87;4.37;;;;;;;10.89;67.49;99069.78;2313537;76;21015;-80
2021/09/20 11:40:52;;;;;;;5.53;4.40;;;;;;;10.83;67.45;99070.14;2314191;77;20940;-80
2021/09/20 11:43:53;;;;;;;7.65;4.10;;;;;;;10.75;66.58;99073.08;2328595;75;20978;-80
2021/09/20 11:46:54;;;;;;;6.53;4.37;;;;;;;10.69;67.36;99069.06;2371457;75;20940;-79
2021/09/20 11:49:54;;;;;;;4.67;3.90;;;;;;;10.68;66.81;99080.36;2372184;75;20929;-81
2021/09/20 11:52:55;;;;;;;5.90;4.12;;;;;;;10.88;66.79;99064.98;2367990;74;20934;-79
2021/09/20 11:55:55;;;;;;;5.62;4.28;;;;;;;11.02;66.15;99069.09;2371594;75;20934;-79
2021/09/20 11:58:56;;;;;;;7.75;4.08;;;;;;;10.99;66.05;99075.58;2286399;77;21363;-79
2021/09/20 12:01:56;;;;;;;7.12;4.33;;;;;;;10.89;66.63;99081.53;2374909;75;20936;-79
2021/09/20 12:04:57;;;;;;;4.60;3.87;;;;;;;10.93;66.64;99078.11;2366238;75;20921;-80
2021/09/20 12:07:58;;;;;;;6.40;4.10;;;;;;;11.04;66.15;99082.62;2362882;75;21003;-80
2021/09/20 12:10:58;;;;;;;4.22;3.83;;;;;;;11.09;66.68;99078.77;2279240;77;20931;-79
2021/09/20 12:13:59;;;;;;;4.53;4.00;;;;;;;11.04;66.28;99080.44;2296101;76;20983;-79
2021/09/20 12:16:59;;;;;;;5.53;4.83;;;;;;;11.06;66.61;99083.95;2291641;77;20994;-79
2021/09/20 12:20:00;;;;;;;5.03;4.53;;;;;;;11.12;66.40;99082.73;2332667;75;20944;-80
2021/09/20 12:23:00;;;;;;;11.28;6.17;;;;;;;11.17;66.62;99081.05;2313543;76;20991;-79
2021/09/20 12:26:01;;;;;;;9.78;5.60;;;;;;;11.05;66.96;99085.69;2366080;75;20926;-80
2021/09/20 12:29:01;;;;;;;8.70;5.00;;;;;;;10.92;67.16;99105.95;2362573;75;21327;-81
2021/09/20 12:32:02;;;;;;;5.67;4.28;;;;;;;10.74;67.86;99094.81;2373938;75;20964;-80
2021/09/20 12:35:04;;;;;;;5.08;4.58;;;;;;;10.62;68.09;99098.55;2376584;74;20925;-79
2021/09/20 12:38:04;;;;;;;4.65;4.25;;;;;;;10.58;68.87;99096.73;2371898;75;21051;-80
2021/09/20 12:41:05;;;;;;;5.80;4.22;;;;;;;10.60;68.70;99096.34;2373906;75;20940;-79
2021/09/20 12:44:05;;;;;;;4.65;4.25;;;;;;;10.68;68.61;99097.33;2375825;75;20987;-80
2021/09/20 12:47:06;;;;;;;5.62;5.00;;;;;;;10.64;69.27;99101.17;2279546;77;21403;-76
2021/09/20 12:50:07;;;;;;;10.32;4.90;;;;;;;10.47;70.32;99106.13;2307471;77;21292;-79
2021/09/20 12:53:08;;;;;;;6.65;5.92;;;;;;;10.35;71.30;99105.47;2314045;77;21004;-79
2021/09/20 12:56:08;;;;;;;9.18;5.30;;;;;;;10.28;71.71;99106.64;2287309;77;20968;-79
2021/09/20 12:59:09;;;;;;;7.03;5.95;;;;;;;10.37;72.05;99104.19;2366351;75;21004;-79
2021/09/20 13:02:09;;;;;;;13.30;5.78;;;;;;;10.30;72.50;99111.46;2376309;75;20952;-79
2021/09/20 13:05:10;;;;;;;7.23;4.93;;;;;;;10.15;72.81;99110.73;2364778;75;20971;-80
2021/09/20 13:08:10;;;;;;;8.35;5.10;;;;;;;10.02;73.33;99121.80;2365151;75;21021;-80
2021/09/20 13:11:11;;;;;;;9.85;5.12;;;;;;;9.92;74.40;99114.66;2369014;75;20983;-80
2021/09/20 13:14:11;;;;;;;7.60;5.37;;;;;;;10.00;74.23;99114.38;2367661;75;20950;-80
2021/09/20 13:17:12;;;;;;;10.50;5.00;;;;;;;10.15;74.21;99121.17;2369162;75;20968;-80
2021/09/20 13:20:12;;;;;;;6.53;4.90;;;;;;;10.17;74.44;99124.26;2369833;75;20939;-79
2021/09/20 13:23:13;;;;;;;5.65;4.42;;;;;;;10.17;74.16;99122.95;2283215;76;20989;-79
2021/09/20 13:26:13;;;;;;;7.95;4.45;;;;;;;10.11;74.13;99127.19;2315797;76;20999;-80
2021/09/20 13:29:15;;;;;;;5.72;5.20;;;;;;;10.06;74.81;99137.53;2284030;76;20947;-80
2021/09/20 13:32:16;;;;;;;7.85;5.03;;;;;;;9.94;76.72;99136.42;2299954;77;20937;-80
2021/09/20 13:35:16;;;;;;;9.37;5.33;;;;;;;9.74;77.55;99136.05;2285365;76;20960;-81
2021/09/20 13:38:16;;;;;;;6.87;5.67;;;;;;;9.64;78.30;99139.31;2361146;75;21406;-82
2021/09/20 13:41:17;;;;;;;10.03;6.43;;;;;;;9.50;78.91;99139.87;2281963;76;21003;-82
2021/09/20 13:44:17;;;;;;;9.10;6.13;;;;;;;9.39;79.53;99145.72;2366183;75;20970;-81
2021/09/20 13:47:18;;;;;;;6.73;5.67;;;;;;;9.24;81.25;99144.54;2372878;75;20948;-81
2021/09/20 13:50:19;;;;;;;8.33;5.63;;;;;;;9.15;81.03;99142.16;2375546;75;21620;-79
2021/09/20 13:53:19;;;;;;;11.17;6.80;;;;;;;9.09;82.41;99151.14;2366340;74;21399;-81
2021/09/20 13:56:20;;;;;;;15.70;10.43;;;;;;;9.04;82.61;99144.95;2373253;75;21286;-82
2021/09/20 13:59:20;;;;;;;18.13;14.43;;;;;;;8.99;83.30;99155.67;2334313;75;21020;-82
2021/09/20 14:02:21;;;;;;;11.67;9.17;;;;;;;8.96;82.85;99159.09;2361876;74;21615;-83
2021/09/20 14:05:21;;;;;;;9.10;6.80;;;;;;;8.98;83.40;99159.12;2283689;76;20963;-81
2021/09/20 14:08:22;;;;;;;10.20;7.27;;;;;;;8.97;83.44;99162.58;2286602;77;20987;-83
2021/09/20 14:11:22;;;;;;;9.93;7.27;;;;;;;8.94;83.65;99168.17;2315086;77;21001;-82
2021/09/20 14:14:23;;;;;;;11.13;7.13;;;;;;;8.92;84.39;99169.86;2312950;77;20939;-82
2021/09/20 14:17:23;;;;;;;9.17;7.57;;;;;;;9.02;83.70;99170.07;2312855;76;21408;-81